sensor_id;sensor_type;location;lat;lon;timestamp;temperature;humidity
59282;DHT22;45054;52.062;10.010;2022-10-23T00:01:28;11.30;99.90
59282;DHT22;45054;52.062;10.010;2022-10-23T00:03:55;11.30;99.90
59282;DHT22;45054;52.062;10.010;2022-10-23T00:06:24;11.40;99.90
59282;DHT22;45054;52.062;10.010;2022-10-23T00:08:50;11.40;99.90
59282;DHT22;45054;52.062;10.010;2022-10-23T00:11:18;11.40;99.90
59282;DHT22;45054;52.062;10.010;2022-10-23T00:13:45;11.40;99.90
59282;DHT22;45054;52.062;10.010;2022-10-23T00:16:11;11.40;99.90
59282;DHT22;45054;52.062;10.010;2022-10-23T00:18:37;11.40;99.90
59282;DHT22;45054;52.062;10.010;2022-10-23T00:21:04;11.40;99.90
59282;DHT22;45054;52.062;10.010;2022-10-23T00:23:31;11.40;99.90
59282;DHT22;45054;52.062;10.010;2022-10-23T00:25:57;11.40;99.90
59282;DHT22;45054;52.062;10.010;2022-10-23T00:28:22;11.40;99.90
59282;DHT22;45054;52.062;10.010;2022-10-23T00:30:48;11.40;99.90
59282;DHT22;45054;52.062;10.010;2022-10-23T00:33:14;11.40;99.90
59282;DHT22;45054;52.062;10.010;2022-10-23T00:35:39;11.30;99.90
59282;DHT22;45054;52.062;10.010;2022-10-23T00:38:06;11.30;99.90
59282;DHT22;45054;52.062;10.010;2022-10-23T00:40:33;11.30;99.90
59282;DHT22;45054;52.062;10.010;2022-10-23T00:43:00;11.30;99.90
59282;DHT22;45054;52.062;10.010;2022-10-23T00:45:27;11.20;99.90
59282;DHT22;45054;52.062;10.010;2022-10-23T00:47:54;11.20;99.90
59282;DHT22;45054;52.062;10.010;2022-10-23T00:50:22;11.30;99.90
59282;DHT22;45054;52.062;10.010;2022-10-23T00:52:50;11.30;99.90
59282;DHT22;45054;52.062;10.010;2022-10-23T00:55:18;11.30;99.90
59282;DHT22;45054;52.062;10.010;2022-10-23T00:57:47;11.40;99.90
59282;DHT22;45054;52.062;10.010;2022-10-23T01:00:17;11.40;99.90
59282;DHT22;45054;52.062;10.010;2022-10-23T01:02:43;11.40;99.90
59282;DHT22;45054;52.062;10.010;2022-10-23T01:05:09;11.40;99.90
59282;DHT22;45054;52.062;10.010;2022-10-23T01:07:42;11.40;99.90
59282;DHT22;45054;52.062;10.010;2022-10-23T01:10:14;11.40;99.90
59282;DHT22;45054;52.062;10.010;2022-10-23T01:12:48;11.40;99.90
59282;DHT22;45054;52.062;10.010;2022-10-23T01:15:17;11.40;99.90
59282;DHT22;45054;52.062;10.010;2022-10-23T01:17:47;11.40;99.90
59282;DHT22;45054;52.062;10.010;2022-10-23T01:20:30;11.30;99.90
59282;DHT22;45054;52.062;10.010;2022-10-23T01:23:11;11.30;99.90
59282;DHT22;45054;52.062;10.010;2022-10-23T01:25:54;11.40;99.90
59282;DHT22;45054;52.062;10.010;2022-10-23T01:28:27;11.40;99.90
59282;DHT22;45054;52.062;10.010;2022-10-23T01:30:55;11.40;99.90
59282;DHT22;45054;52.062;10.010;2022-10-23T01:33:25;11.50;99.90
59282;DHT22;45054;52.062;10.010;2022-10-23T01:36:00;11.50;99.90
59282;DHT22;45054;52.062;10.010;2022-10-23T01:38:34;11.50;99.90
59282;DHT22;45054;52.062;10.010;2022-10-23T01:41:08;11.50;99.90
59282;DHT22;45054;52.062;10.010;2022-10-23T01:43:42;11.50;99.90
59282;DHT22;45054;52.062;10.010;2022-10-23T01:46:12;11.50;99.90
59282;DHT22;45054;52.062;10.010;2022-10-23T01:48:41;11.50;99.90
59282;DHT22;45054;52.062;10.010;2022-10-23T01:51:11;11.50;99.90
59282;DHT22;45054;52.062;10.010;2022-10-23T01:53:40;11.40;99.90
59282;DHT22;45054;52.062;10.010;2022-10-23T01:56:10;11.40;99.90
59282;DHT22;45054;52.062;10.010;2022-10-23T01:58:37;11.40;99.90
59282;DHT22;45054;52.062;10.010;2022-10-23T02:01:05;11.40;99.90
59282;DHT22;45054;52.062;10.010;2022-10-23T02:03:33;11.40;99.90
59282;DHT22;45054;52.062;10.010;2022-10-23T02:05:59;11.40;99.90
59282;DHT22;45054;52.062;10.010;2022-10-23T02:08:25;11.30;99.90
59282;DHT22;45054;52.062;10.010;2022-10-23T02:10:55;11.30;99.90
59282;DHT22;45054;52.062;10.010;2022-10-23T02:13:27;11.30;99.90
59282;DHT22;45054;52.062;10.010;2022-10-23T02:16:05;11.30;99.90
59282;DHT22;45054;52.062;10.010;2022-10-23T02:18:36;11.30;99.90
59282;DHT22;45054;52.062;10.010;2022-10-23T02:21:08;11.30;99.90
59282;DHT22;45054;52.062;10.010;2022-10-23T02:23:37;11.30;99.90
59282;DHT22;45054;52.062;10.010;2022-10-23T02:26:07;11.30;99.90
59282;DHT22;45054;52.062;10.010;2022-10-23T02:28:37;11.20;99.90
59282;DHT22;45054;52.062;10.010;2022-10-23T02:31:09;11.20;99.90
59282;DHT22;45054;52.062;10.010;2022-10-23T02:33:35;11.20;99.90
59282;DHT22;45054;52.062;10.010;2022-10-23T02:36:01;11.20;99.90
59282;DHT22;45054;52.062;10.010;2022-10-23T02:38:36;11.20;99.90
59282;DHT22;45054;52.062;10.010;2022-10-23T02:41:18;11.20;99.90
59282;DHT22;45054;52.062;10.010;2022-10-23T02:43:56;11.20;99.90
59282;DHT22;45054;52.062;10.010;2022-10-23T02:46:40;11.10;99.90
59282;DHT22;45054;52.062;10.010;2022-10-23T02:49:12;11.10;99.90
59282;DHT22;45054;52.062;10.010;2022-10-23T02:51:46;11.10;99.90
59282;DHT22;45054;52.062;10.010;2022-10-23T02:54:23;11.10;99.90
59282;DHT22;45054;52.062;10.010;2022-10-23T02:56:54;11.00;99.90
59282;DHT22;45054;52.062;10.010;2022-10-23T02:59:29;11.10;99.90
59282;DHT22;45054;52.062;10.010;2022-10-23T03:02:03;11.10;99.90
59282;DHT22;45054;52.062;10.010;2022-10-23T03:04:30;11.10;99.90
59282;DHT22;45054;52.062;10.010;2022-10-23T03:06:57;11.10;99.90
59282;DHT22;45054;52.062;10.010;2022-10-23T03:09:25;11.00;99.90
59282;DHT22;45054;52.062;10.010;2022-10-23T03:11:51;10.90;99.90
59282;DHT22;45054;52.062;10.010;2022-10-23T03:14:16;10.90;99.90
59282;DHT22;45054;52.062;10.010;2022-10-23T03:16:42;10.90;99.90
59282;DHT22;45054;52.062;10.010;2022-10-23T03:19:10;10.90;99.90
59282;DHT22;45054;52.062;10.010;2022-10-23T03:21:36;10.90;99.90
59282;DHT22;45054;52.062;10.010;2022-10-23T03:24:02;10.90;99.90
59282;DHT22;45054;52.062;10.010;2022-10-23T03:26:28;10.90;99.90
59282;DHT22;45054;52.062;10.010;2022-10-23T03:28:53;10.90;99.90
59282;DHT22;45054;52.062;10.010;2022-10-23T03:31:19;10.80;99.90
59282;DHT22;45054;52.062;10.010;2022-10-23T03:33:44;10.80;99.90
59282;DHT22;45054;52.062;10.010;2022-10-23T03:36:11;10.70;99.90
59282;DHT22;45054;52.062;10.010;2022-10-23T03:38:37;10.70;99.90
59282;DHT22;45054;52.062;10.010;2022-10-23T03:41:03;10.70;99.90
59282;DHT22;45054;52.062;10.010;2022-10-23T03:43:28;10.70;99.90
59282;DHT22;45054;52.062;10.010;2022-10-23T03:45:54;10.70;99.90
59282;DHT22;45054;52.062;10.010;2022-10-23T03:48:20;10.70;99.90
59282;DHT22;45054;52.062;10.010;2022-10-23T03:50:46;10.70;99.90
59282;DHT22;45054;52.062;10.010;2022-10-23T03:53:13;10.70;99.90
59282;DHT22;45054;52.062;10.010;2022-10-23T03:55:39;10.70;99.90
59282;DHT22;45054;52.062;10.010;2022-10-23T03:58:04;10.70;99.90
59282;DHT22;45054;52.062;10.010;2022-10-23T04:00:30;10.60;99.90
59282;DHT22;45054;52.062;10.010;2022-10-23T04:02:56;10.70;99.90
59282;DHT22;45054;52.062;10.010;2022-10-23T04:05:21;10.60;99.90
59282;DHT22;45054;52.062;10.010;2022-10-23T04:07:47;10.70;99.90
59282;DHT22;45054;52.062;10.010;2022-10-23T04:10:14;10.70;99.90
59282;DHT22;45054;52.062;10.010;2022-10-23T04:12:40;10.70;99.90
59282;DHT22;45054;52.062;10.010;2022-10-23T04:15:06;10.70;99.90
59282;DHT22;45054;52.062;10.010;2022-10-23T04:17:32;10.60;99.90
59282;DHT22;45054;52.062;10.010;2022-10-23T04:19:57;10.70;99.90
59282;DHT22;45054;52.062;10.010;2022-10-23T04:22:23;10.70;99.90
59282;DHT22;45054;52.062;10.010;2022-10-23T04:24:49;10.60;99.90
59282;DHT22;45054;52.062;10.010;2022-10-23T04:27:16;10.70;99.90
59282;DHT22;45054;52.062;10.010;2022-10-23T04:29:41;10.80;99.90
59282;DHT22;45054;52.062;10.010;2022-10-23T04:32:07;10.70;99.90
59282;DHT22;45054;52.062;10.010;2022-10-23T04:34:32;10.60;99.90
59282;DHT22;45054;52.062;10.010;2022-10-23T04:36:58;10.60;99.90
59282;DHT22;45054;52.062;10.010;2022-10-23T04:39:24;10.50;99.90
59282;DHT22;45054;52.062;10.010;2022-10-23T04:41:50;10.50;99.90
59282;DHT22;45054;52.062;10.010;2022-10-23T04:44:17;10.50;99.90
59282;DHT22;45054;52.062;10.010;2022-10-23T04:46:42;10.50;99.90
59282;DHT22;45054;52.062;10.010;2022-10-23T04:49:08;10.60;99.90
59282;DHT22;45054;52.062;10.010;2022-10-23T04:51:33;10.60;99.90
59282;DHT22;45054;52.062;10.010;2022-10-23T04:53:59;10.50;99.90
59282;DHT22;45054;52.062;10.010;2022-10-23T04:56:25;10.50;99.90
59282;DHT22;45054;52.062;10.010;2022-10-23T04:58:50;10.50;99.90
59282;DHT22;45054;52.062;10.010;2022-10-23T05:01:17;10.50;99.90
59282;DHT22;45054;52.062;10.010;2022-10-23T05:03:43;10.50;99.90
59282;DHT22;45054;52.062;10.010;2022-10-23T05:06:09;10.50;99.90
59282;DHT22;45054;52.062;10.010;2022-10-23T05:08:35;10.50;99.90
59282;DHT22;45054;52.062;10.010;2022-10-23T05:11:00;10.60;99.90
59282;DHT22;45054;52.062;10.010;2022-10-23T05:13:26;10.60;99.90
59282;DHT22;45054;52.062;10.010;2022-10-23T05:15:52;10.60;99.90
59282;DHT22;45054;52.062;10.010;2022-10-23T05:18:21;10.60;99.90
59282;DHT22;45054;52.062;10.010;2022-10-23T05:20:50;10.60;99.90
59282;DHT22;45054;52.062;10.010;2022-10-23T05:23:21;10.60;99.90
59282;DHT22;45054;52.062;10.010;2022-10-23T05:25:47;10.60;99.90
59282;DHT22;45054;52.062;10.010;2022-10-23T05:28:12;10.60;99.90
59282;DHT22;45054;52.062;10.010;2022-10-23T05:30:38;10.60;99.90
59282;DHT22;45054;52.062;10.010;2022-10-23T05:33:04;10.60;99.90
59282;DHT22;45054;52.062;10.010;2022-10-23T05:35:31;10.60;99.90
59282;DHT22;45054;52.062;10.010;2022-10-23T05:37:58;10.60;99.90
59282;DHT22;45054;52.062;10.010;2022-10-23T05:40:24;10.50;99.90
59282;DHT22;45054;52.062;10.010;2022-10-23T05:42:50;10.50;99.90
59282;DHT22;45054;52.062;10.010;2022-10-23T05:45:16;10.40;99.90
59282;DHT22;45054;52.062;10.010;2022-10-23T05:47:42;10.40;99.90
59282;DHT22;45054;52.062;10.010;2022-10-23T05:50:08;10.30;99.90
59282;DHT22;45054;52.062;10.010;2022-10-23T05:52:35;10.20;99.90
59282;DHT22;45054;52.062;10.010;2022-10-23T05:55:01;10.10;99.90
59282;DHT22;45054;52.062;10.010;2022-10-23T05:57:27;10.10;99.90
59282;DHT22;45054;52.062;10.010;2022-10-23T05:59:52;10.10;99.90
59282;DHT22;45054;52.062;10.010;2022-10-23T06:02:18;10.10;99.90
59282;DHT22;45054;52.062;10.010;2022-10-23T06:04:43;10.20;99.90
59282;DHT22;45054;52.062;10.010;2022-10-23T06:07:09;10.20;99.90
59282;DHT22;45054;52.062;10.010;2022-10-23T06:09:36;10.20;99.90
59282;DHT22;45054;52.062;10.010;2022-10-23T06:12:02;10.20;99.90
59282;DHT22;45054;52.062;10.010;2022-10-23T06:14:28;10.20;99.90
59282;DHT22;45054;52.062;10.010;2022-10-23T06:16:53;10.10;99.90
59282;DHT22;45054;52.062;10.010;2022-10-23T06:19:19;10.10;99.90
59282;DHT22;45054;52.062;10.010;2022-10-23T06:21:45;10.00;99.90
59282;DHT22;45054;52.062;10.010;2022-10-23T06:24:10;10.10;99.90
59282;DHT22;45054;52.062;10.010;2022-10-23T06:26:37;10.10;99.90
59282;DHT22;45054;52.062;10.010;2022-10-23T06:29:03;10.20;99.90
59282;DHT22;45054;52.062;10.010;2022-10-23T06:31:29;10.40;99.90
59282;DHT22;45054;52.062;10.010;2022-10-23T06:33:55;10.50;99.90
59282;DHT22;45054;52.062;10.010;2022-10-23T06:36:21;10.60;99.90
59282;DHT22;45054;52.062;10.010;2022-10-23T06:38:47;10.60;99.90
59282;DHT22;45054;52.062;10.010;2022-10-23T06:41:15;10.60;99.90
59282;DHT22;45054;52.062;10.010;2022-10-23T06:43:42;10.70;99.90
59282;DHT22;45054;52.062;10.010;2022-10-23T06:46:08;10.70;99.90
59282;DHT22;45054;52.062;10.010;2022-10-23T06:48:34;10.60;99.90
59282;DHT22;45054;52.062;10.010;2022-10-23T06:51:05;10.60;99.90
59282;DHT22;45054;52.062;10.010;2022-10-23T06:53:33;10.60;99.90
59282;DHT22;45054;52.062;10.010;2022-10-23T06:55:58;10.60;99.90
59282;DHT22;45054;52.062;10.010;2022-10-23T06:58:24;10.60;99.90
59282;DHT22;45054;52.062;10.010;2022-10-23T07:00:51;10.60;99.90
59282;DHT22;45054;52.062;10.010;2022-10-23T07:03:17;10.50;99.90
59282;DHT22;45054;52.062;10.010;2022-10-23T07:05:43;10.50;99.90
59282;DHT22;45054;52.062;10.010;2022-10-23T07:08:08;10.60;99.90
59282;DHT22;45054;52.062;10.010;2022-10-23T07:10:34;10.70;99.90
59282;DHT22;45054;52.062;10.010;2022-10-23T07:12:59;10.80;99.90
59282;DHT22;45054;52.062;10.010;2022-10-23T07:15:25;10.80;99.90
59282;DHT22;45054;52.062;10.010;2022-10-23T07:17:52;10.90;99.90
59282;DHT22;45054;52.062;10.010;2022-10-23T07:20:18;11.00;99.90
59282;DHT22;45054;52.062;10.010;2022-10-23T07:22:49;11.10;99.90
59282;DHT22;45054;52.062;10.010;2022-10-23T07:25:15;11.30;99.90
59282;DHT22;45054;52.062;10.010;2022-10-23T07:27:41;11.30;99.90
59282;DHT22;45054;52.062;10.010;2022-10-23T07:30:07;11.30;99.90
59282;DHT22;45054;52.062;10.010;2022-10-23T07:32:33;11.40;99.90
59282;DHT22;45054;52.062;10.010;2022-10-23T07:35:00;11.40;99.90
59282;DHT22;45054;52.062;10.010;2022-10-23T07:37:27;11.50;99.90
59282;DHT22;45054;52.062;10.010;2022-10-23T07:39:52;11.50;99.90
59282;DHT22;45054;52.062;10.010;2022-10-23T07:42:18;11.60;99.90
59282;DHT22;45054;52.062;10.010;2022-10-23T07:44:44;11.60;99.90
59282;DHT22;45054;52.062;10.010;2022-10-23T07:47:09;11.60;99.90
59282;DHT22;45054;52.062;10.010;2022-10-23T07:49:35;11.70;99.90
59282;DHT22;45054;52.062;10.010;2022-10-23T07:52:03;11.70;99.90
59282;DHT22;45054;52.062;10.010;2022-10-23T07:54:29;11.80;99.90
59282;DHT22;45054;52.062;10.010;2022-10-23T07:56:55;11.80;99.90
59282;DHT22;45054;52.062;10.010;2022-10-23T07:59:20;11.90;99.90
59282;DHT22;45054;52.062;10.010;2022-10-23T08:01:46;12.00;99.90
59282;DHT22;45054;52.062;10.010;2022-10-23T08:04:11;12.00;99.90
59282;DHT22;45054;52.062;10.010;2022-10-23T08:06:37;12.10;99.90
59282;DHT22;45054;52.062;10.010;2022-10-23T08:09:04;12.10;99.90
59282;DHT22;45054;52.062;10.010;2022-10-23T08:11:30;12.20;99.90
59282;DHT22;45054;52.062;10.010;2022-10-23T08:13:57;12.20;99.90
59282;DHT22;45054;52.062;10.010;2022-10-23T08:16:23;12.30;99.90
59282;DHT22;45054;52.062;10.010;2022-10-23T08:18:50;12.40;99.90
59282;DHT22;45054;52.062;10.010;2022-10-23T08:21:16;12.50;99.90
59282;DHT22;45054;52.062;10.010;2022-10-23T08:23:43;12.50;99.90
59282;DHT22;45054;52.062;10.010;2022-10-23T08:26:10;12.60;99.90
59282;DHT22;45054;52.062;10.010;2022-10-23T08:28:36;12.70;99.90
59282;DHT22;45054;52.062;10.010;2022-10-23T08:31:07;12.80;99.90
59282;DHT22;45054;52.062;10.010;2022-10-23T08:33:32;12.80;99.90
59282;DHT22;45054;52.062;10.010;2022-10-23T08:35:58;12.90;99.90
59282;DHT22;45054;52.062;10.010;2022-10-23T08:38:24;13.00;99.90
59282;DHT22;45054;52.062;10.010;2022-10-23T08:40:49;13.10;99.90
59282;DHT22;45054;52.062;10.010;2022-10-23T08:43:19;13.20;99.90
59282;DHT22;45054;52.062;10.010;2022-10-23T08:45:50;13.30;99.90
59282;DHT22;45054;52.062;10.010;2022-10-23T08:48:20;13.40;99.90
59282;DHT22;45054;52.062;10.010;2022-10-23T08:50:51;13.40;99.90
59282;DHT22;45054;52.062;10.010;2022-10-23T08:53:21;13.50;99.90
59282;DHT22;45054;52.062;10.010;2022-10-23T08:55:57;13.60;99.90
59282;DHT22;45054;52.062;10.010;2022-10-23T08:58:31;13.60;99.90
59282;DHT22;45054;52.062;10.010;2022-10-23T09:00:59;13.70;99.90
59282;DHT22;45054;52.062;10.010;2022-10-23T09:03:24;13.70;99.90
59282;DHT22;45054;52.062;10.010;2022-10-23T09:06:04;13.80;99.90
59282;DHT22;45054;52.062;10.010;2022-10-23T09:08:39;13.80;99.90
59282;DHT22;45054;52.062;10.010;2022-10-23T09:11:11;13.90;99.90
59282;DHT22;45054;52.062;10.010;2022-10-23T09:14:00;14.00;99.90
59282;DHT22;45054;52.062;10.010;2022-10-23T09:16:42;14.10;99.90
59282;DHT22;45054;52.062;10.010;2022-10-23T09:19:15;14.20;99.90
59282;DHT22;45054;52.062;10.010;2022-10-23T09:21:43;14.30;99.90
59282;DHT22;45054;52.062;10.010;2022-10-23T09:24:13;14.30;99.90
59282;DHT22;45054;52.062;10.010;2022-10-23T09:26:39;14.40;99.90
59282;DHT22;45054;52.062;10.010;2022-10-23T09:29:16;14.40;99.90
59282;DHT22;45054;52.062;10.010;2022-10-23T09:31:47;14.40;99.90
59282;DHT22;45054;52.062;10.010;2022-10-23T09:34:19;14.50;99.90
59282;DHT22;45054;52.062;10.010;2022-10-23T09:36:50;14.50;99.90
59282;DHT22;45054;52.062;10.010;2022-10-23T09:39:26;14.60;99.90
59282;DHT22;45054;52.062;10.010;2022-10-23T09:41:52;14.60;99.90
59282;DHT22;45054;52.062;10.010;2022-10-23T09:44:21;14.70;99.90
59282;DHT22;45054;52.062;10.010;2022-10-23T09:46:48;14.70;99.90
59282;DHT22;45054;52.062;10.010;2022-10-23T09:49:16;14.70;99.90
59282;DHT22;45054;52.062;10.010;2022-10-23T09:51:59;14.80;99.90
59282;DHT22;45054;52.062;10.010;2022-10-23T09:54:25;14.80;99.90
59282;DHT22;45054;52.062;10.010;2022-10-23T09:56:52;14.90;99.90
59282;DHT22;45054;52.062;10.010;2022-10-23T09:59:23;14.90;99.90
59282;DHT22;45054;52.062;10.010;2022-10-23T10:01:51;15.00;99.90
59282;DHT22;45054;52.062;10.010;2022-10-23T10:04:18;15.00;99.90
59282;DHT22;45054;52.062;10.010;2022-10-23T10:06:43;15.00;99.90
59282;DHT22;45054;52.062;10.010;2022-10-23T10:09:12;15.10;99.90
59282;DHT22;45054;52.062;10.010;2022-10-23T10:11:42;15.10;99.90
59282;DHT22;45054;52.062;10.010;2022-10-23T10:14:48;15.10;99.90
59282;DHT22;45054;52.062;10.010;2022-10-23T10:17:19;15.10;99.90
59282;DHT22;45054;52.062;10.010;2022-10-23T10:20:03;15.20;99.90
59282;DHT22;45054;52.062;10.010;2022-10-23T10:22:34;15.20;99.90
59282;DHT22;45054;52.062;10.010;2022-10-23T10:25:10;15.20;99.90
59282;DHT22;45054;52.062;10.010;2022-10-23T10:27:44;15.20;99.90
59282;DHT22;45054;52.062;10.010;2022-10-23T10:30:18;15.30;99.90
59282;DHT22;45054;52.062;10.010;2022-10-23T10:32:49;15.40;99.90
59282;DHT22;45054;52.062;10.010;2022-10-23T10:35:22;15.40;99.90
59282;DHT22;45054;52.062;10.010;2022-10-23T10:40:44;15.60;99.90
59282;DHT22;45054;52.062;10.010;2022-10-23T10:43:22;15.60;99.90
59282;DHT22;45054;52.062;10.010;2022-10-23T10:45:54;15.70;99.90
59282;DHT22;45054;52.062;10.010;2022-10-23T10:48:31;15.80;99.90
59282;DHT22;45054;52.062;10.010;2022-10-23T10:51:02;15.90;99.90
59282;DHT22;45054;52.062;10.010;2022-10-23T10:53:37;16.10;99.90
59282;DHT22;45054;52.062;10.010;2022-10-23T10:56:04;16.20;99.90
59282;DHT22;45054;52.062;10.010;2022-10-23T10:58:37;16.20;99.90
59282;DHT22;45054;52.062;10.010;2022-10-23T11:01:10;16.40;99.90
59282;DHT22;45054;52.062;10.010;2022-10-23T11:03:42;16.40;99.90
59282;DHT22;45054;52.062;10.010;2022-10-23T11:06:14;16.40;99.90
59282;DHT22;45054;52.062;10.010;2022-10-23T11:08:41;16.50;99.90
59282;DHT22;45054;52.062;10.010;2022-10-23T11:11:10;16.50;99.90
59282;DHT22;45054;52.062;10.010;2022-10-23T11:13:39;16.60;99.90
59282;DHT22;45054;52.062;10.010;2022-10-23T11:16:09;16.70;99.90
59282;DHT22;45054;52.062;10.010;2022-10-23T11:18:36;16.80;99.90
59282;DHT22;45054;52.062;10.010;2022-10-23T11:21:14;16.80;99.90
59282;DHT22;45054;52.062;10.010;2022-10-23T11:27:03;17.00;99.90
59282;DHT22;45054;52.062;10.010;2022-10-23T11:35:44;17.50;99.90
59282;DHT22;45054;52.062;10.010;2022-10-23T11:38:16;17.60;99.90
59282;DHT22;45054;52.062;10.010;2022-10-23T11:40:44;17.60;99.90
59282;DHT22;45054;52.062;10.010;2022-10-23T11:43:10;17.60;99.90
59282;DHT22;45054;52.062;10.010;2022-10-23T11:45:38;17.60;99.90
59282;DHT22;45054;52.062;10.010;2022-10-23T11:48:18;17.60;99.90
59282;DHT22;45054;52.062;10.010;2022-10-23T11:50:50;17.50;99.90
59282;DHT22;45054;52.062;10.010;2022-10-23T11:53:25;17.60;99.90
59282;DHT22;45054;52.062;10.010;2022-10-23T11:55:59;17.70;99.90
59282;DHT22;45054;52.062;10.010;2022-10-23T11:58:27;17.70;99.90
59282;DHT22;45054;52.062;10.010;2022-10-23T12:00:57;17.70;99.90
59282;DHT22;45054;52.062;10.010;2022-10-23T12:03:28;17.70;99.90
59282;DHT22;45054;52.062;10.010;2022-10-23T12:06:01;17.70;99.90
59282;DHT22;45054;52.062;10.010;2022-10-23T12:08:29;17.70;99.90
59282;DHT22;45054;52.062;10.010;2022-10-23T12:10:55;17.70;99.90
59282;DHT22;45054;52.062;10.010;2022-10-23T12:16:09;17.70;99.90
59282;DHT22;45054;52.062;10.010;2022-10-23T12:18:46;17.60;99.90
59282;DHT22;45054;52.062;10.010;2022-10-23T12:21:16;17.60;99.90
59282;DHT22;45054;52.062;10.010;2022-10-23T12:23:52;17.70;99.90
59282;DHT22;45054;52.062;10.010;2022-10-23T12:26:30;17.70;99.90
59282;DHT22;45054;52.062;10.010;2022-10-23T12:29:04;17.70;99.90
59282;DHT22;45054;52.062;10.010;2022-10-23T12:31:43;17.70;99.90
59282;DHT22;45054;52.062;10.010;2022-10-23T12:34:22;17.70;99.90
59282;DHT22;45054;52.062;10.010;2022-10-23T12:37:02;17.70;99.90
59282;DHT22;45054;52.062;10.010;2022-10-23T12:39:30;17.70;99.90
59282;DHT22;45054;52.062;10.010;2022-10-23T12:41:58;17.70;99.90
59282;DHT22;45054;52.062;10.010;2022-10-23T12:44:24;17.70;99.90
59282;DHT22;45054;52.062;10.010;2022-10-23T12:46:53;17.70;99.90
59282;DHT22;45054;52.062;10.010;2022-10-23T12:49:23;17.60;99.90
59282;DHT22;45054;52.062;10.010;2022-10-23T12:51:55;17.50;99.90
59282;DHT22;45054;52.062;10.010;2022-10-23T12:54:21;17.50;99.90
59282;DHT22;45054;52.062;10.010;2022-10-23T12:56:47;17.50;99.90
59282;DHT22;45054;52.062;10.010;2022-10-23T12:59:15;17.40;99.90
59282;DHT22;45054;52.062;10.010;2022-10-23T13:01:41;17.40;99.90
59282;DHT22;45054;52.062;10.010;2022-10-23T13:04:12;17.40;99.90
59282;DHT22;45054;52.062;10.010;2022-10-23T13:06:39;17.40;99.90
59282;DHT22;45054;52.062;10.010;2022-10-23T13:09:21;17.30;99.90
59282;DHT22;45054;52.062;10.010;2022-10-23T13:11:48;17.30;99.90
59282;DHT22;45054;52.062;10.010;2022-10-23T13:14:30;17.30;99.90
59282;DHT22;45054;52.062;10.010;2022-10-23T13:17:02;17.30;99.90
59282;DHT22;45054;52.062;10.010;2022-10-23T13:19:29;17.30;99.90
59282;DHT22;45054;52.062;10.010;2022-10-23T13:21:57;17.30;99.90
59282;DHT22;45054;52.062;10.010;2022-10-23T13:24:25;17.30;99.90
59282;DHT22;45054;52.062;10.010;2022-10-23T13:26:51;17.30;99.90
59282;DHT22;45054;52.062;10.010;2022-10-23T13:29:20;17.20;99.90
59282;DHT22;45054;52.062;10.010;2022-10-23T13:31:46;17.20;99.90
59282;DHT22;45054;52.062;10.010;2022-10-23T13:34:17;17.10;99.90
59282;DHT22;45054;52.062;10.010;2022-10-23T13:36:51;17.10;99.90
59282;DHT22;45054;52.062;10.010;2022-10-23T13:39:22;17.10;99.90
59282;DHT22;45054;52.062;10.010;2022-10-23T13:41:48;17.10;99.90
59282;DHT22;45054;52.062;10.010;2022-10-23T13:44:16;17.10;99.90
59282;DHT22;45054;52.062;10.010;2022-10-23T13:46:42;17.00;99.90
59282;DHT22;45054;52.062;10.010;2022-10-23T13:49:08;17.00;99.90
59282;DHT22;45054;52.062;10.010;2022-10-23T13:51:37;17.00;99.90
59282;DHT22;45054;52.062;10.010;2022-10-23T13:54:08;17.00;99.90
59282;DHT22;45054;52.062;10.010;2022-10-23T13:56:37;17.00;99.90
59282;DHT22;45054;52.062;10.010;2022-10-23T13:59:03;17.00;99.90
59282;DHT22;45054;52.062;10.010;2022-10-23T14:01:32;17.00;99.90
59282;DHT22;45054;52.062;10.010;2022-10-23T14:03:59;17.00;99.90
59282;DHT22;45054;52.062;10.010;2022-10-23T14:06:24;17.00;99.90
59282;DHT22;45054;52.062;10.010;2022-10-23T14:08:50;17.10;99.90
59282;DHT22;45054;52.062;10.010;2022-10-23T14:11:18;17.00;99.90
59282;DHT22;45054;52.062;10.010;2022-10-23T14:13:46;17.00;99.90
59282;DHT22;45054;52.062;10.010;2022-10-23T14:16:14;17.00;99.90
59282;DHT22;45054;52.062;10.010;2022-10-23T14:18:40;17.00;99.90
59282;DHT22;45054;52.062;10.010;2022-10-23T14:21:07;17.00;99.90
59282;DHT22;45054;52.062;10.010;2022-10-23T14:23:34;16.90;99.90
59282;DHT22;45054;52.062;10.010;2022-10-23T14:26:01;16.80;99.90
59282;DHT22;45054;52.062;10.010;2022-10-23T14:28:27;16.80;99.90
59282;DHT22;45054;52.062;10.010;2022-10-23T14:30:53;16.80;99.90
59282;DHT22;45054;52.062;10.010;2022-10-23T14:33:19;16.80;99.90
59282;DHT22;45054;52.062;10.010;2022-10-23T14:35:45;16.80;99.90
59282;DHT22;45054;52.062;10.010;2022-10-23T14:38:10;16.80;99.90
59282;DHT22;45054;52.062;10.010;2022-10-23T14:40:36;16.80;99.90
59282;DHT22;45054;52.062;10.010;2022-10-23T14:43:02;16.70;99.90
59282;DHT22;45054;52.062;10.010;2022-10-23T14:45:28;16.80;99.90
59282;DHT22;45054;52.062;10.010;2022-10-23T14:47:55;16.70;99.90
59282;DHT22;45054;52.062;10.010;2022-10-23T14:50:21;16.80;99.90
59282;DHT22;45054;52.062;10.010;2022-10-23T14:52:46;16.70;99.90
59282;DHT22;45054;52.062;10.010;2022-10-23T14:55:12;16.70;99.90
59282;DHT22;45054;52.062;10.010;2022-10-23T14:57:38;16.70;99.90
59282;DHT22;45054;52.062;10.010;2022-10-23T15:00:04;16.70;99.90
59282;DHT22;45054;52.062;10.010;2022-10-23T15:02:30;16.70;99.90
59282;DHT22;45054;52.062;10.010;2022-10-23T15:04:57;16.70;99.90
59282;DHT22;45054;52.062;10.010;2022-10-23T15:07:23;16.80;99.90
59282;DHT22;45054;52.062;10.010;2022-10-23T15:09:48;16.80;99.90
59282;DHT22;45054;52.062;10.010;2022-10-23T15:12:14;16.80;99.90
59282;DHT22;45054;52.062;10.010;2022-10-23T15:14:39;16.80;99.90
59282;DHT22;45054;52.062;10.010;2022-10-23T15:17:05;16.80;99.90
59282;DHT22;45054;52.062;10.010;2022-10-23T15:19:31;16.70;99.90
59282;DHT22;45054;52.062;10.010;2022-10-23T15:21:58;16.70;99.90
59282;DHT22;45054;52.062;10.010;2022-10-23T15:24:23;16.70;99.90
59282;DHT22;45054;52.062;10.010;2022-10-23T15:26:49;16.70;99.90
59282;DHT22;45054;52.062;10.010;2022-10-23T15:29:15;16.60;99.90
59282;DHT22;45054;52.062;10.010;2022-10-23T15:31:47;16.60;99.90
59282;DHT22;45054;52.062;10.010;2022-10-23T15:34:15;16.60;99.90
59282;DHT22;45054;52.062;10.010;2022-10-23T15:36:42;16.60;99.90
59282;DHT22;45054;52.062;10.010;2022-10-23T15:39:10;16.60;99.90